sensor_id;sensor_type;location;lat;lon;timestamp;temperature;humidity
8180;DHT22;4131;48.810;11.892;2022-12-07T00:01:28;2.10;99.90
8180;DHT22;4131;48.810;11.892;2022-12-07T00:04:00;2.10;99.90
8180;DHT22;4131;48.810;11.892;2022-12-07T00:06:32;2.20;99.90
8180;DHT22;4131;48.810;11.892;2022-12-07T00:09:01;2.60;99.90
8180;DHT22;4131;48.810;11.892;2022-12-07T00:11:29;3.10;99.90
8180;DHT22;4131;48.810;11.892;2022-12-07T00:13:59;2.80;99.90
8180;DHT22;4131;48.810;11.892;2022-12-07T00:16:29;2.00;99.90
8180;DHT22;4131;48.810;11.892;2022-12-07T00:18:59;2.00;99.90
8180;DHT22;4131;48.810;11.892;2022-12-07T00:21:29;2.00;99.90
8180;DHT22;4131;48.810;11.892;2022-12-07T00:23:59;2.00;99.90
8180;DHT22;4131;48.810;11.892;2022-12-07T00:26:29;2.00;99.90
8180;DHT22;4131;48.810;11.892;2022-12-07T00:28:59;2.00;99.90
8180;DHT22;4131;48.810;11.892;2022-12-07T00:31:29;2.00;99.90
8180;DHT22;4131;48.810;11.892;2022-12-07T00:34:01;2.30;99.90
8180;DHT22;4131;48.810;11.892;2022-12-07T00:36:29;1.90;99.90
8180;DHT22;4131;48.810;11.892;2022-12-07T00:38:59;2.00;99.90
8180;DHT22;4131;48.810;11.892;2022-12-07T00:41:28;2.50;99.90
8180;DHT22;4131;48.810;11.892;2022-12-07T00:43:57;3.20;99.90
8180;DHT22;4131;48.810;11.892;2022-12-07T00:46:25;1.90;99.90
8180;DHT22;4131;48.810;11.892;2022-12-07T00:48:54;1.90;99.90
8180;DHT22;4131;48.810;11.892;2022-12-07T00:51:24;2.10;99.90
8180;DHT22;4131;48.810;11.892;2022-12-07T00:53:53;1.90;99.90
8180;DHT22;4131;48.810;11.892;2022-12-07T00:56:23;1.90;99.90
8180;DHT22;4131;48.810;11.892;2022-12-07T00:58:53;1.90;99.90
8180;DHT22;4131;48.810;11.892;2022-12-07T01:01:23;1.80;99.90
8180;DHT22;4131;48.810;11.892;2022-12-07T01:03:52;1.80;99.90
8180;DHT22;4131;48.810;11.892;2022-12-07T01:06:21;1.80;99.90
8180;DHT22;4131;48.810;11.892;2022-12-07T01:08:52;1.80;99.90
8180;DHT22;4131;48.810;11.892;2022-12-07T01:11:22;1.80;99.90
8180;DHT22;4131;48.810;11.892;2022-12-07T01:13:51;1.80;99.90
8180;DHT22;4131;48.810;11.892;2022-12-07T01:16:21;1.90;99.90
8180;DHT22;4131;48.810;11.892;2022-12-07T01:18:51;1.80;99.90
8180;DHT22;4131;48.810;11.892;2022-12-07T01:21:21;1.80;99.90
8180;DHT22;4131;48.810;11.892;2022-12-07T01:23:52;1.80;99.90
8180;DHT22;4131;48.810;11.892;2022-12-07T01:26:21;2.50;99.90
8180;DHT22;4131;48.810;11.892;2022-12-07T01:28:51;1.80;99.90
8180;DHT22;4131;48.810;11.892;2022-12-07T01:31:23;1.80;99.90
8180;DHT22;4131;48.810;11.892;2022-12-07T01:33:53;1.80;99.90
8180;DHT22;4131;48.810;11.892;2022-12-07T01:36:23;1.80;99.90
8180;DHT22;4131;48.810;11.892;2022-12-07T01:38:55;1.80;99.90
8180;DHT22;4131;48.810;11.892;2022-12-07T01:41:26;1.80;99.90
8180;DHT22;4131;48.810;11.892;2022-12-07T01:44:11;2.60;99.90
8180;DHT22;4131;48.810;11.892;2022-12-07T01:46:40;1.80;99.90
8180;DHT22;4131;48.810;11.892;2022-12-07T01:49:11;1.80;99.90
8180;DHT22;4131;48.810;11.892;2022-12-07T01:51:42;1.80;99.90
8180;DHT22;4131;48.810;11.892;2022-12-07T01:54:13;1.80;99.90
8180;DHT22;4131;48.810;11.892;2022-12-07T01:56:45;2.00;99.90
8180;DHT22;4131;48.810;11.892;2022-12-07T01:59:17;1.80;99.90
8180;DHT22;4131;48.810;11.892;2022-12-07T02:01:46;3.00;99.90
8180;DHT22;4131;48.810;11.892;2022-12-07T02:04:14;1.70;99.90
8180;DHT22;4131;48.810;11.892;2022-12-07T02:06:44;1.70;99.90
8180;DHT22;4131;48.810;11.892;2022-12-07T02:09:14;2.20;99.90
8180;DHT22;4131;48.810;11.892;2022-12-07T02:11:42;1.70;99.90
8180;DHT22;4131;48.810;11.892;2022-12-07T02:14:10;1.70;99.90
8180;DHT22;4131;48.810;11.892;2022-12-07T02:16:47;2.20;99.90
8180;DHT22;4131;48.810;11.892;2022-12-07T02:19:36;1.60;99.90
8180;DHT22;4131;48.810;11.892;2022-12-07T02:22:18;1.60;99.90
8180;DHT22;4131;48.810;11.892;2022-12-07T02:24:55;2.90;99.90
8180;DHT22;4131;48.810;11.892;2022-12-07T02:27:40;1.70;99.90
8180;DHT22;4131;48.810;11.892;2022-12-07T02:30:13;1.60;99.90
8180;DHT22;4131;48.810;11.892;2022-12-07T02:32:46;1.70;99.90
8180;DHT22;4131;48.810;11.892;2022-12-07T02:35:20;1.60;99.90
8180;DHT22;4131;48.810;11.892;2022-12-07T02:37:55;2.90;99.90
8180;DHT22;4131;48.810;11.892;2022-12-07T02:40:31;1.70;99.90
8180;DHT22;4131;48.810;11.892;2022-12-07T02:43:04;1.70;99.90
8180;DHT22;4131;48.810;11.892;2022-12-07T02:45:38;1.70;99.90
8180;DHT22;4131;48.810;11.892;2022-12-07T02:48:10;1.70;99.90
8180;DHT22;4131;48.810;11.892;2022-12-07T02:50:39;1.70;99.90
8180;DHT22;4131;48.810;11.892;2022-12-07T02:53:30;1.70;99.90
8180;DHT22;4131;48.810;11.892;2022-12-07T02:56:00;1.60;99.90
8180;DHT22;4131;48.810;11.892;2022-12-07T02:58:40;1.60;99.90
8180;DHT22;4131;48.810;11.892;2022-12-07T03:01:19;1.60;99.90
8180;DHT22;4131;48.810;11.892;2022-12-07T03:03:59;1.60;99.90
8180;DHT22;4131;48.810;11.892;2022-12-07T03:06:34;1.60;99.90
8180;DHT22;4131;48.810;11.892;2022-12-07T03:09:12;2.30;99.90
8180;DHT22;4131;48.810;11.892;2022-12-07T03:11:46;1.60;99.90
8180;DHT22;4131;48.810;11.892;2022-12-07T03:14:19;1.60;99.90
8180;DHT22;4131;48.810;11.892;2022-12-07T03:16:55;1.60;99.90
8180;DHT22;4131;48.810;11.892;2022-12-07T03:19:26;1.60;99.90
8180;DHT22;4131;48.810;11.892;2022-12-07T03:21:57;1.60;99.90
8180;DHT22;4131;48.810;11.892;2022-12-07T03:24:29;1.60;99.90
8180;DHT22;4131;48.810;11.892;2022-12-07T03:27:03;1.70;99.90
8180;DHT22;4131;48.810;11.892;2022-12-07T03:29:36;1.70;99.90
8180;DHT22;4131;48.810;11.892;2022-12-07T03:32:13;1.60;99.90
8180;DHT22;4131;48.810;11.892;2022-12-07T03:34:46;2.50;99.90
8180;DHT22;4131;48.810;11.892;2022-12-07T03:37:19;1.60;99.90
8180;DHT22;4131;48.810;11.892;2022-12-07T03:39:55;1.60;99.90
8180;DHT22;4131;48.810;11.892;2022-12-07T03:42:25;1.60;99.90
8180;DHT22;4131;48.810;11.892;2022-12-07T03:44:54;1.60;99.90
8180;DHT22;4131;48.810;11.892;2022-12-07T03:47:26;1.60;99.90
8180;DHT22;4131;48.810;11.892;2022-12-07T03:49:59;1.60;99.90
8180;DHT22;4131;48.810;11.892;2022-12-07T03:52:33;1.60;99.90
8180;DHT22;4131;48.810;11.892;2022-12-07T03:55:06;1.60;99.90
8180;DHT22;4131;48.810;11.892;2022-12-07T03:57:38;1.60;99.90
8180;DHT22;4131;48.810;11.892;2022-12-07T04:00:08;1.60;99.90
8180;DHT22;4131;48.810;11.892;2022-12-07T04:02:39;1.50;99.90
8180;DHT22;4131;48.810;11.892;2022-12-07T04:05:08;1.70;99.90
8180;DHT22;4131;48.810;11.892;2022-12-07T04:07:37;2.60;99.90
8180;DHT22;4131;48.810;11.892;2022-12-07T04:10:06;1.60;99.90
8180;DHT22;4131;48.810;11.892;2022-12-07T04:12:54;1.50;99.90
8180;DHT22;4131;48.810;11.892;2022-12-07T04:15:42;1.60;99.90
8180;DHT22;4131;48.810;11.892;2022-12-07T04:18:32;1.60;99.90
8180;DHT22;4131;48.810;11.892;2022-12-07T04:21:11;1.60;99.90
8180;DHT22;4131;48.810;11.892;2022-12-07T04:24:00;2.10;99.90
8180;DHT22;4131;48.810;11.892;2022-12-07T04:26:48;2.70;99.90
8180;DHT22;4131;48.810;11.892;2022-12-07T04:29:17;1.50;99.90
8180;DHT22;4131;48.810;11.892;2022-12-07T04:31:46;1.50;99.90
8180;DHT22;4131;48.810;11.892;2022-12-07T04:34:17;1.50;99.90
8180;DHT22;4131;48.810;11.892;2022-12-07T04:36:46;1.50;99.90
8180;DHT22;4131;48.810;11.892;2022-12-07T04:39:19;1.50;99.90
8180;DHT22;4131;48.810;11.892;2022-12-07T04:41:48;1.50;99.90
8180;DHT22;4131;48.810;11.892;2022-12-07T04:44:18;1.50;99.90
8180;DHT22;4131;48.810;11.892;2022-12-07T04:46:46;1.50;99.90
8180;DHT22;4131;48.810;11.892;2022-12-07T04:49:17;1.50;99.90
8180;DHT22;4131;48.810;11.892;2022-12-07T04:51:46;1.50;99.90
8180;DHT22;4131;48.810;11.892;2022-12-07T04:54:15;2.40;99.90
8180;DHT22;4131;48.810;11.892;2022-12-07T04:56:44;1.50;99.90
8180;DHT22;4131;48.810;11.892;2022-12-07T04:59:14;1.40;99.90
8180;DHT22;4131;48.810;11.892;2022-12-07T05:01:43;1.20;99.90
8180;DHT22;4131;48.810;11.892;2022-12-07T05:04:12;1.20;99.90
8180;DHT22;4131;48.810;11.892;2022-12-07T05:06:44;1.10;99.90
8180;DHT22;4131;48.810;11.892;2022-12-07T05:09:12;1.00;99.90
8180;DHT22;4131;48.810;11.892;2022-12-07T05:11:40;1.00;99.90
8180;DHT22;4131;48.810;11.892;2022-12-07T05:14:12;1.00;99.90
8180;DHT22;4131;48.810;11.892;2022-12-07T05:16:42;1.20;99.90
8180;DHT22;4131;48.810;11.892;2022-12-07T05:19:11;1.10;99.90
8180;DHT22;4131;48.810;11.892;2022-12-07T05:21:39;1.10;99.90
8180;DHT22;4131;48.810;11.892;2022-12-07T05:24:11;1.10;99.90
8180;DHT22;4131;48.810;11.892;2022-12-07T05:26:39;1.00;99.90
8180;DHT22;4131;48.810;11.892;2022-12-07T05:29:11;1.00;99.90
8180;DHT22;4131;48.810;11.892;2022-12-07T05:31:39;1.30;99.90
8180;DHT22;4131;48.810;11.892;2022-12-07T05:34:07;0.90;99.90
8180;DHT22;4131;48.810;11.892;2022-12-07T05:36:36;0.90;99.90
8180;DHT22;4131;48.810;11.892;2022-12-07T05:39:05;0.70;99.90
8180;DHT22;4131;48.810;11.892;2022-12-07T05:41:35;0.60;99.90
8180;DHT22;4131;48.810;11.892;2022-12-07T05:44:21;0.60;99.90
8180;DHT22;4131;48.810;11.892;2022-12-07T05:46:49;0.50;99.90
8180;DHT22;4131;48.810;11.892;2022-12-07T05:49:17;1.30;99.90
8180;DHT22;4131;48.810;11.892;2022-12-07T05:51:45;0.70;99.90
8180;DHT22;4131;48.810;11.892;2022-12-07T05:54:14;0.70;99.90
8180;DHT22;4131;48.810;11.892;2022-12-07T05:56:43;1.40;99.90
8180;DHT22;4131;48.810;11.892;2022-12-07T05:59:12;2.40;99.90
8180;DHT22;4131;48.810;11.892;2022-12-07T06:01:52;1.20;99.90
8180;DHT22;4131;48.810;11.892;2022-12-07T06:04:23;0.20;99.90
8180;DHT22;4131;48.810;11.892;2022-12-07T06:06:51;2.60;99.90
8180;DHT22;4131;48.810;11.892;2022-12-07T06:09:21;0.20;99.90
8180;DHT22;4131;48.810;11.892;2022-12-07T06:11:51;0.30;99.90
8180;DHT22;4131;48.810;11.892;2022-12-07T06:14:37;0.10;99.90
8180;DHT22;4131;48.810;11.892;2022-12-07T06:17:05;0.90;99.90
8180;DHT22;4131;48.810;11.892;2022-12-07T06:19:34;-0.10;99.90
8180;DHT22;4131;48.810;11.892;2022-12-07T06:22:02;-0.20;99.90
8180;DHT22;4131;48.810;11.892;2022-12-07T06:24:32;1.10;99.90
8180;DHT22;4131;48.810;11.892;2022-12-07T06:27:02;-0.30;99.90
8180;DHT22;4131;48.810;11.892;2022-12-07T06:29:30;-0.30;99.90
8180;DHT22;4131;48.810;11.892;2022-12-07T06:31:58;-0.40;99.90
8180;DHT22;4131;48.810;11.892;2022-12-07T06:34:27;1.10;99.90
8180;DHT22;4131;48.810;11.892;2022-12-07T06:36:55;0.80;99.90
8180;DHT22;4131;48.810;11.892;2022-12-07T06:39:25;0.40;99.90
8180;DHT22;4131;48.810;11.892;2022-12-07T06:41:54;-0.20;99.90
8180;DHT22;4131;48.810;11.892;2022-12-07T06:44:24;0.60;99.90
8180;DHT22;4131;48.810;11.892;2022-12-07T06:46:52;0.30;99.90
8180;DHT22;4131;48.810;11.892;2022-12-07T06:49:41;-0.20;99.90
8180;DHT22;4131;48.810;11.892;2022-12-07T06:52:09;1.00;99.90
8180;DHT22;4131;48.810;11.892;2022-12-07T06:54:37;-0.50;99.90
8180;DHT22;4131;48.810;11.892;2022-12-07T06:57:05;1.20;99.90
8180;DHT22;4131;48.810;11.892;2022-12-07T06:59:35;-0.10;99.90
8180;DHT22;4131;48.810;11.892;2022-12-07T07:02:03;1.50;99.90
8180;DHT22;4131;48.810;11.892;2022-12-07T07:04:31;-0.40;99.90
8180;DHT22;4131;48.810;11.892;2022-12-07T07:07:00;-0.40;99.90
8180;DHT22;4131;48.810;11.892;2022-12-07T07:09:32;-0.40;99.90
8180;DHT22;4131;48.810;11.892;2022-12-07T07:12:00;0.50;99.90
8180;DHT22;4131;48.810;11.892;2022-12-07T07:14:28;0.80;99.90
8180;DHT22;4131;48.810;11.892;2022-12-07T07:16:58;1.30;99.90
8180;DHT22;4131;48.810;11.892;2022-12-07T07:19:26;0.30;99.90
8180;DHT22;4131;48.810;11.892;2022-12-07T07:21:54;0.80;99.90
8180;DHT22;4131;48.810;11.892;2022-12-07T07:24:22;0.90;99.90
8180;DHT22;4131;48.810;11.892;2022-12-07T07:26:51;1.50;99.90
8180;DHT22;4131;48.810;11.892;2022-12-07T07:29:19;-0.50;99.90
8180;DHT22;4131;48.810;11.892;2022-12-07T07:31:47;-0.50;99.90
8180;DHT22;4131;48.810;11.892;2022-12-07T07:34:17;1.20;99.90
8180;DHT22;4131;48.810;11.892;2022-12-07T07:36:45;-0.20;99.90
8180;DHT22;4131;48.810;11.892;2022-12-07T07:39:14;0.40;99.90
8180;DHT22;4131;48.810;11.892;2022-12-07T07:41:42;0.90;99.90
8180;DHT22;4131;48.810;11.892;2022-12-07T07:44:10;0.20;99.90
8180;DHT22;4131;48.810;11.892;2022-12-07T07:46:38;0.20;99.90
8180;DHT22;4131;48.810;11.892;2022-12-07T07:49:08;0.20;99.90
8180;DHT22;4131;48.810;11.892;2022-12-07T07:51:38;0.20;99.90
8180;DHT22;4131;48.810;11.892;2022-12-07T07:54:06;2.20;99.90
8180;DHT22;4131;48.810;11.892;2022-12-07T07:56:34;1.10;99.90
8180;DHT22;4131;48.810;11.892;2022-12-07T07:59:02;0.90;99.90
8180;DHT22;4131;48.810;11.892;2022-12-07T08:01:31;1.80;99.90
8180;DHT22;4131;48.810;11.892;2022-12-07T08:03:59;2.20;99.90
8180;DHT22;4131;48.810;11.892;2022-12-07T08:06:27;1.30;99.90
8180;DHT22;4131;48.810;11.892;2022-12-07T08:08:59;0.60;99.90
8180;DHT22;4131;48.810;11.892;2022-12-07T08:11:28;1.40;99.90
8180;DHT22;4131;48.810;11.892;2022-12-07T08:13:56;1.10;99.90
8180;DHT22;4131;48.810;11.892;2022-12-07T08:16:24;0.50;99.90
8180;DHT22;4131;48.810;11.892;2022-12-07T08:18:53;0.60;99.90
8180;DHT22;4131;48.810;11.892;2022-12-07T08:21:21;0.70;99.90
8180;DHT22;4131;48.810;11.892;2022-12-07T08:23:49;1.20;99.90
8180;DHT22;4131;48.810;11.892;2022-12-07T08:26:19;1.60;99.90
8180;DHT22;4131;48.810;11.892;2022-12-07T08:28:47;1.30;99.90
8180;DHT22;4131;48.810;11.892;2022-12-07T08:31:17;0.40;99.90
8180;DHT22;4131;48.810;11.892;2022-12-07T08:33:46;0.60;99.90
8180;DHT22;4131;48.810;11.892;2022-12-07T08:36:15;1.30;99.90
8180;DHT22;4131;48.810;11.892;2022-12-07T08:38:43;2.50;99.90
8180;DHT22;4131;48.810;11.892;2022-12-07T08:41:33;0.90;99.90
8180;DHT22;4131;48.810;11.892;2022-12-07T08:44:02;1.10;99.90
8180;DHT22;4131;48.810;11.892;2022-12-07T08:46:34;2.80;99.90
8180;DHT22;4131;48.810;11.892;2022-12-07T08:49:07;3.00;99.90
8180;DHT22;4131;48.810;11.892;2022-12-07T08:51:38;1.70;99.90
8180;DHT22;4131;48.810;11.892;2022-12-07T08:54:10;3.70;99.90
8180;DHT22;4131;48.810;11.892;2022-12-07T08:56:41;2.10;99.90
8180;DHT22;4131;48.810;11.892;2022-12-07T08:59:09;4.70;99.90
8180;DHT22;4131;48.810;11.892;2022-12-07T09:01:38;2.60;99.90
8180;DHT22;4131;48.810;11.892;2022-12-07T09:04:06;3.50;99.90
8180;DHT22;4131;48.810;11.892;2022-12-07T09:06:35;2.90;99.90
8180;DHT22;4131;48.810;11.892;2022-12-07T09:09:04;3.30;99.90
8180;DHT22;4131;48.810;11.892;2022-12-07T09:11:33;3.50;99.90
8180;DHT22;4131;48.810;11.892;2022-12-07T09:14:03;4.60;99.90
8180;DHT22;4131;48.810;11.892;2022-12-07T09:16:31;5.00;99.90
8180;DHT22;4131;48.810;11.892;2022-12-07T09:18:59;4.50;99.90
8180;DHT22;4131;48.810;11.892;2022-12-07T09:21:27;3.50;99.90
8180;DHT22;4131;48.810;11.892;2022-12-07T09:23:56;5.90;99.90
8180;DHT22;4131;48.810;11.892;2022-12-07T09:26:24;5.20;99.90
8180;DHT22;4131;48.810;11.892;2022-12-07T09:28:52;3.70;99.90
8180;DHT22;4131;48.810;11.892;2022-12-07T09:31:22;4.30;99.90
8180;DHT22;4131;48.810;11.892;2022-12-07T09:33:56;3.80;99.90
8180;DHT22;4131;48.810;11.892;2022-12-07T09:36:24;3.60;99.90
8180;DHT22;4131;48.810;11.892;2022-12-07T09:38:53;3.40;99.90
8180;DHT22;4131;48.810;11.892;2022-12-07T09:41:23;3.90;99.90
8180;DHT22;4131;48.810;11.892;2022-12-07T09:43:52;4.00;99.90
8180;DHT22;4131;48.810;11.892;2022-12-07T09:46:22;3.00;99.90
8180;DHT22;4131;48.810;11.892;2022-12-07T09:48:51;2.80;99.90
8180;DHT22;4131;48.810;11.892;2022-12-07T09:51:20;4.40;99.90
8180;DHT22;4131;48.810;11.892;2022-12-07T09:53:52;2.90;99.90
8180;DHT22;4131;48.810;11.892;2022-12-07T09:56:22;2.90;99.90
8180;DHT22;4131;48.810;11.892;2022-12-07T09:58:54;2.80;99.90
8180;DHT22;4131;48.810;11.892;2022-12-07T10:01:30;2.80;99.90
8180;DHT22;4131;48.810;11.892;2022-12-07T10:04:05;3.60;99.90
8180;DHT22;4131;48.810;11.892;2022-12-07T10:06:35;3.00;99.90
8180;DHT22;4131;48.810;11.892;2022-12-07T10:09:09;5.10;99.90
8180;DHT22;4131;48.810;11.892;2022-12-07T10:12:02;5.30;99.90
8180;DHT22;4131;48.810;11.892;2022-12-07T10:14:32;3.10;99.90
8180;DHT22;4131;48.810;11.892;2022-12-07T10:17:31;3.20;99.90
8180;DHT22;4131;48.810;11.892;2022-12-07T10:20:23;5.00;99.90
8180;DHT22;4131;48.810;11.892;2022-12-07T10:22:57;5.20;99.90
8180;DHT22;4131;48.810;11.892;2022-12-07T10:25:28;5.10;99.90
8180;DHT22;4131;48.810;11.892;2022-12-07T10:27:58;4.10;99.90
8180;DHT22;4131;48.810;11.892;2022-12-07T10:30:27;5.60;99.90
8180;DHT22;4131;48.810;11.892;2022-12-07T10:32:57;3.60;99.90
8180;DHT22;4131;48.810;11.892;2022-12-07T10:35:30;5.40;99.90
8180;DHT22;4131;48.810;11.892;2022-12-07T10:37:59;6.00;99.90
8180;DHT22;4131;48.810;11.892;2022-12-07T10:40:31;5.90;99.90
8180;DHT22;4131;48.810;11.892;2022-12-07T10:43:03;3.30;99.90
8180;DHT22;4131;48.810;11.892;2022-12-07T10:45:34;3.30;99.90
8180;DHT22;4131;48.810;11.892;2022-12-07T10:48:29;4.30;99.90
8180;DHT22;4131;48.810;11.892;2022-12-07T10:51:10;4.80;99.90
8180;DHT22;4131;48.810;11.892;2022-12-07T10:53:50;4.10;99.90
8180;DHT22;4131;48.810;11.892;2022-12-07T10:56:44;3.30;99.90
8180;DHT22;4131;48.810;11.892;2022-12-07T10:59:45;3.20;99.90
8180;DHT22;4131;48.810;11.892;2022-12-07T11:02:25;3.20;99.90
8180;DHT22;4131;48.810;11.892;2022-12-07T11:05:13;5.60;99.90
8180;DHT22;4131;48.810;11.892;2022-12-07T11:07:51;3.20;99.90
8180;DHT22;4131;48.810;11.892;2022-12-07T11:10:26;5.40;99.90
8180;DHT22;4131;48.810;11.892;2022-12-07T11:13:10;3.60;99.90
8180;DHT22;4131;48.810;11.892;2022-12-07T11:15:55;3.20;99.90
8180;DHT22;4131;48.810;11.892;2022-12-07T11:18:32;5.40;99.90
8180;DHT22;4131;48.810;11.892;2022-12-07T11:21:09;5.50;99.90
8180;DHT22;4131;48.810;11.892;2022-12-07T11:23:46;5.10;99.90
8180;DHT22;4131;48.810;11.892;2022-12-07T11:26:24;3.30;99.90
8180;DHT22;4131;48.810;11.892;2022-12-07T11:29:23;5.10;99.90
8180;DHT22;4131;48.810;11.892;2022-12-07T11:32:01;3.10;99.90
8180;DHT22;4131;48.810;11.892;2022-12-07T11:34:39;3.20;99.90
8180;DHT22;4131;48.810;11.892;2022-12-07T11:37:15;5.60;99.90
8180;DHT22;4131;48.810;11.892;2022-12-07T11:39:49;4.90;99.90
8180;DHT22;4131;48.810;11.892;2022-12-07T11:42:22;4.90;99.90
8180;DHT22;4131;48.810;11.892;2022-12-07T11:44:53;3.20;99.90
8180;DHT22;4131;48.810;11.892;2022-12-07T11:47:27;5.00;99.90
8180;DHT22;4131;48.810;11.892;2022-12-07T11:50:07;3.00;99.90
8180;DHT22;4131;48.810;11.892;2022-12-07T11:52:44;3.00;99.90
8180;DHT22;4131;48.810;11.892;2022-12-07T11:55:19;4.30;99.90
8180;DHT22;4131;48.810;11.892;2022-12-07T11:57:53;3.00;99.90
8180;DHT22;4131;48.810;11.892;2022-12-07T12:00:22;5.40;99.90
8180;DHT22;4131;48.810;11.892;2022-12-07T12:02:56;3.00;99.90
8180;DHT22;4131;48.810;11.892;2022-12-07T12:05:26;5.00;99.90
8180;DHT22;4131;48.810;11.892;2022-12-07T12:08:03;3.20;99.90
8180;DHT22;4131;48.810;11.892;2022-12-07T12:10:58;4.30;99.90
8180;DHT22;4131;48.810;11.892;2022-12-07T12:13:54;5.10;99.90
8180;DHT22;4131;48.810;11.892;2022-12-07T12:17:02;3.10;99.90
8180;DHT22;4131;48.810;11.892;2022-12-07T12:19:34;3.10;99.90
8180;DHT22;4131;48.810;11.892;2022-12-07T12:22:10;5.00;99.90
8180;DHT22;4131;48.810;11.892;2022-12-07T12:24:42;4.70;99.90
8180;DHT22;4131;48.810;11.892;2022-12-07T12:27:26;5.30;99.90
8180;DHT22;4131;48.810;11.892;2022-12-07T12:29:59;3.20;99.90
8180;DHT22;4131;48.810;11.892;2022-12-07T12:32:36;3.30;99.90
8180;DHT22;4131;48.810;11.892;2022-12-07T12:35:28;3.40;99.90
8180;DHT22;4131;48.810;11.892;2022-12-07T12:38:29;4.20;99.90
8180;DHT22;4131;48.810;11.892;2022-12-07T12:40:59;3.30;99.90
8180;DHT22;4131;48.810;11.892;2022-12-07T12:43:55;5.30;99.90
8180;DHT22;4131;48.810;11.892;2022-12-07T12:46:51;5.00;99.90
8180;DHT22;4131;48.810;11.892;2022-12-07T12:49:38;3.20;99.90
8180;DHT22;4131;48.810;11.892;2022-12-07T12:55:20;3.40;99.90
8180;DHT22;4131;48.810;11.892;2022-12-07T13:04:31;3.40;99.90
8180;DHT22;4131;48.810;11.892;2022-12-07T13:07:03;4.80;99.90
8180;DHT22;4131;48.810;11.892;2022-12-07T13:09:34;3.20;99.90
8180;DHT22;4131;48.810;11.892;2022-12-07T13:12:11;5.20;99.90
8180;DHT22;4131;48.810;11.892;2022-12-07T13:14:55;2.50;99.90
8180;DHT22;4131;48.810;11.892;2022-12-07T13:17:57;4.10;99.90
8180;DHT22;4131;48.810;11.892;2022-12-07T13:20:49;3.30;99.90
8180;DHT22;4131;48.810;11.892;2022-12-07T13:23:39;3.60;99.90
8180;DHT22;4131;48.810;11.892;2022-12-07T13:26:23;3.30;99.90
8180;DHT22;4131;48.810;11.892;2022-12-07T13:29:06;3.40;99.90
8180;DHT22;4131;48.810;11.892;2022-12-07T13:31:36;3.40;99.90
8180;DHT22;4131;48.810;11.892;2022-12-07T13:34:29;3.30;99.90
8180;DHT22;4131;48.810;11.892;2022-12-07T13:37:00;3.30;99.90
8180;DHT22;4131;48.810;11.892;2022-12-07T13:39:32;3.40;99.90
8180;DHT22;4131;48.810;11.892;2022-12-07T13:42:19;3.40;99.90
8180;DHT22;4131;48.810;11.892;2022-12-07T13:44:50;3.40;99.90
8180;DHT22;4131;48.810;11.892;2022-12-07T13:47:22;3.80;99.90
8180;DHT22;4131;48.810;11.892;2022-12-07T13:49:55;3.40;99.90
8180;DHT22;4131;48.810;11.892;2022-12-07T13:52:27;3.30;99.90
8180;DHT22;4131;48.810;11.892;2022-12-07T13:54:57;3.40;99.90
8180;DHT22;4131;48.810;11.892;2022-12-07T13:57:28;3.40;99.90
8180;DHT22;4131;48.810;11.892;2022-12-07T13:59:57;3.40;99.90
8180;DHT22;4131;48.810;11.892;2022-12-07T14:02:27;3.40;99.90
8180;DHT22;4131;48.810;11.892;2022-12-07T14:05:09;4.00;99.90
8180;DHT22;4131;48.810;11.892;2022-12-07T14:07:54;3.30;99.90
8180;DHT22;4131;48.810;11.892;2022-12-07T14:10:24;3.30;99.90
8180;DHT22;4131;48.810;11.892;2022-12-07T14:12:53;4.30;99.90
8180;DHT22;4131;48.810;11.892;2022-12-07T14:15:24;3.30;99.90
8180;DHT22;4131;48.810;11.892;2022-12-07T14:17:55;3.20;99.90
8180;DHT22;4131;48.810;11.892;2022-12-07T14:20:32;3.20;99.90
8180;DHT22;4131;48.810;11.892;2022-12-07T14:23:03;3.20;99.90
8180;DHT22;4131;48.810;11.892;2022-12-07T14:25:45;3.20;99.90
8180;DHT22;4131;48.810;11.892;2022-12-07T14:28:27;3.20;99.90
8180;DHT22;4131;48.810;11.892;2022-12-07T14:30:56;3.20;99.90
8180;DHT22;4131;48.810;11.892;2022-12-07T14:33:25;3.20;99.90
8180;DHT22;4131;48.810;11.892;2022-12-07T14:35:54;3.20;99.90
8180;DHT22;4131;48.810;11.892;2022-12-07T14:38:26;3.20;99.90
8180;DHT22;4131;48.810;11.892;2022-12-07T14:40:55;4.60;99.90
8180;DHT22;4131;48.810;11.892;2022-12-07T14:43:44;3.10;99.90
8180;DHT22;4131;48.810;11.892;2022-12-07T14:46:33;3.10;99.90
8180;DHT22;4131;48.810;11.892;2022-12-07T14:49:01;4.30;99.90
8180;DHT22;4131;48.810;11.892;2022-12-07T14:51:49;3.10;99.90
8180;DHT22;4131;48.810;11.892;2022-12-07T14:54:39;3.10;99.90
8180;DHT22;4131;48.810;11.892;2022-12-07T14:57:09;3.00;99.90
8180;DHT22;4131;48.810;11.892;2022-12-07T14:59:38;3.00;99.90
8180;DHT22;4131;48.810;11.892;2022-12-07T15:02:12;3.00;99.90
8180;DHT22;4131;48.810;11.892;2022-12-07T15:04:40;3.00;99.90
8180;DHT22;4131;48.810;11.892;2022-12-07T15:07:14;3.00;99.90
8180;DHT22;4131;48.810;11.892;2022-12-07T15:09:45;3.00;99.90
8180;DHT22;4131;48.810;11.892;2022-12-07T15:12:13;2.90;99.90
8180;DHT22;4131;48.810;11.892;2022-12-07T15:14:42;2.90;99.90
8180;DHT22;4131;48.810;11.892;2022-12-07T15:17:10;3.20;99.90
8180;DHT22;4131;48.810;11.892;2022-12-07T15:19:53;2.80;99.90
8180;DHT22;4131;48.810;11.892;2022-12-07T15:22:21;2.80;99.90
8180;DHT22;4131;48.810;11.892;2022-12-07T15:24:51;2.80;99.90
8180;DHT22;4131;48.810;11.892;2022-12-07T15:27:19;2.80;99.90
8180;DHT22;4131;48.810;11.892;2022-12-07T15:29:48;2.80;99.90
8180;DHT22;4131;48.810;11.892;2022-12-07T15:32:16;2.80;99.90
8180;DHT22;4131;48.810;11.892;2022-12-07T15:34:44;2.70;99.90
8180;DHT22;4131;48.810;11.892;2022-12-07T15:37:12;2.70;99.90
8180;DHT22;4131;48.810;11.892;2022-12-07T15:39:40;4.00;99.90
8180;DHT22;4131;48.810;11.892;2022-12-07T15:42:10;2.70;99.90
8180;DHT22;4131;48.810;11.892;2022-12-07T15:44:38;2.70;99.90
8180;DHT22;4131;48.810;11.892;2022-12-07T15:47:24;2.70;99.90
8180;DHT22;4131;48.810;11.892;2022-12-07T15:49:53;2.60;99.90
8180;DHT22;4131;48.810;11.892;2022-12-07T15:52:24;2.60;99.90
8180;DHT22;4131;48.810;11.892;2022-12-07T15:54:52;2.60;99.90
8180;DHT22;4131;48.810;11.892;2022-12-07T15:57:22;2.60;99.90
8180;DHT22;4131;48.810;11.892;2022-12-07T15:59:51;2.50;99.90
8180;DHT22;4131;48.810;11.892;2022-12-07T16:02:20;2.40;99.90
8180;DHT22;4131;48.810;11.892;2022-12-07T16:04:52;4.50;99.90
8180;DHT22;4131;48.810;11.892;2022-12-07T16:07:20;2.50;99.90
8180;DHT22;4131;48.810;11.892;2022-12-07T16:09:48;2.40;99.90
8180;DHT22;4131;48.810;11.892;2022-12-07T16:12:17;2.40;99.90
8180;DHT22;4131;48.810;11.892;2022-12-07T16:14:47;2.40;99.90
8180;DHT22;4131;48.810;11.892;2022-12-07T16:17:15;3.40;99.90
8180;DHT22;4131;48.810;11.892;2022-12-07T16:19:43;2.40;99.90
8180;DHT22;4131;48.810;11.892;2022-12-07T16:22:11;2.30;99.90
8180;DHT22;4131;48.810;11.892;2022-12-07T16:24:39;2.30;99.90
8180;DHT22;4131;48.810;11.892;2022-12-07T16:27:07;2.30;99.90
8180;DHT22;4131;48.810;11.892;2022-12-07T16:29:36;2.40;99.90
8180;DHT22;4131;48.810;11.892;2022-12-07T16:32:05;2.30;99.90
8180;DHT22;4131;48.810;11.892;2022-12-07T16:34:34;2.30;99.90
8180;DHT22;4131;48.810;11.892;2022-12-07T16:37:02;2.30;99.90
8180;DHT22;4131;48.810;11.892;2022-12-07T16:39:32;2.30;99.90
8180;DHT22;4131;48.810;11.892;2022-12-07T16:42:01;2.20;99.90
8180;DHT22;4131;48.810;11.892;2022-12-07T16:44:29;2.30;99.90
8180;DHT22;4131;48.810;11.892;2022-12-07T16:46:58;2.30;99.90
8180;DHT22;4131;48.810;11.892;2022-12-07T16:49:29;2.80;99.90